sensor_id;sensor_type;location;lat;lon;timestamp;temperature;humidity
10437;DHT22;5265;50.006;9.202;2023-05-16T00:00:46;12.20;99.90
10437;DHT22;5265;50.006;9.202;2023-05-16T00:03:13;12.20;99.90
10437;DHT22;5265;50.006;9.202;2023-05-16T00:05:40;12.20;99.90
10437;DHT22;5265;50.006;9.202;2023-05-16T00:08:07;12.10;99.90
10437;DHT22;5265;50.006;9.202;2023-05-16T00:10:34;12.10;99.90
10437;DHT22;5265;50.006;9.202;2023-05-16T00:13:03;12.20;99.90
10437;DHT22;5265;50.006;9.202;2023-05-16T00:15:31;12.00;99.90
10437;DHT22;5265;50.006;9.202;2023-05-16T00:17:59;12.00;99.90
10437;DHT22;5265;50.006;9.202;2023-05-16T00:20:26;11.90;99.90
10437;DHT22;5265;50.006;9.202;2023-05-16T00:22:54;11.90;99.90
10437;DHT22;5265;50.006;9.202;2023-05-16T00:25:25;11.80;99.90
10437;DHT22;5265;50.006;9.202;2023-05-16T00:27:53;11.80;99.90
10437;DHT22;5265;50.006;9.202;2023-05-16T00:30:21;11.80;99.90
10437;DHT22;5265;50.006;9.202;2023-05-16T00:32:50;11.90;99.90
10437;DHT22;5265;50.006;9.202;2023-05-16T00:35:17;11.80;99.90
10437;DHT22;5265;50.006;9.202;2023-05-16T00:37:45;11.60;99.90
10437;DHT22;5265;50.006;9.202;2023-05-16T00:40:12;11.90;99.90
10437;DHT22;5265;50.006;9.202;2023-05-16T00:42:39;11.90;99.90
10437;DHT22;5265;50.006;9.202;2023-05-16T00:45:07;11.70;99.90
10437;DHT22;5265;50.006;9.202;2023-05-16T00:47:36;11.80;99.90
10437;DHT22;5265;50.006;9.202;2023-05-16T00:50:04;11.90;99.90
10437;DHT22;5265;50.006;9.202;2023-05-16T00:52:32;11.90;99.90
10437;DHT22;5265;50.006;9.202;2023-05-16T00:55:01;11.90;99.90
10437;DHT22;5265;50.006;9.202;2023-05-16T00:57:28;11.90;99.90
10437;DHT22;5265;50.006;9.202;2023-05-16T00:59:55;12.00;99.90
10437;DHT22;5265;50.006;9.202;2023-05-16T01:02:22;11.90;99.90
10437;DHT22;5265;50.006;9.202;2023-05-16T01:04:54;12.00;99.90
10437;DHT22;5265;50.006;9.202;2023-05-16T01:07:22;11.90;99.90
10437;DHT22;5265;50.006;9.202;2023-05-16T01:09:49;11.90;99.90
10437;DHT22;5265;50.006;9.202;2023-05-16T01:12:19;11.80;99.90
10437;DHT22;5265;50.006;9.202;2023-05-16T01:14:50;11.70;99.90
10437;DHT22;5265;50.006;9.202;2023-05-16T01:17:22;11.80;99.90
10437;DHT22;5265;50.006;9.202;2023-05-16T01:19:58;11.80;99.90
10437;DHT22;5265;50.006;9.202;2023-05-16T01:22:29;11.80;99.90
10437;DHT22;5265;50.006;9.202;2023-05-16T01:25:01;11.80;99.90
10437;DHT22;5265;50.006;9.202;2023-05-16T01:27:32;11.80;99.90
10437;DHT22;5265;50.006;9.202;2023-05-16T01:30:09;11.80;99.90
10437;DHT22;5265;50.006;9.202;2023-05-16T01:32:37;11.90;99.90
10437;DHT22;5265;50.006;9.202;2023-05-16T01:35:04;11.80;99.90
10437;DHT22;5265;50.006;9.202;2023-05-16T01:37:33;11.70;99.90
10437;DHT22;5265;50.006;9.202;2023-05-16T01:40:03;11.70;99.90
10437;DHT22;5265;50.006;9.202;2023-05-16T01:42:36;11.70;99.90
10437;DHT22;5265;50.006;9.202;2023-05-16T01:45:04;11.70;99.90
10437;DHT22;5265;50.006;9.202;2023-05-16T01:47:38;11.60;99.90
10437;DHT22;5265;50.006;9.202;2023-05-16T01:50:09;11.70;99.90
10437;DHT22;5265;50.006;9.202;2023-05-16T01:52:37;11.70;99.90
10437;DHT22;5265;50.006;9.202;2023-05-16T01:55:06;11.60;99.90
10437;DHT22;5265;50.006;9.202;2023-05-16T01:57:37;11.70;99.90
10437;DHT22;5265;50.006;9.202;2023-05-16T02:00:06;11.80;99.90
10437;DHT22;5265;50.006;9.202;2023-05-16T02:02:39;11.80;99.90
10437;DHT22;5265;50.006;9.202;2023-05-16T02:05:08;11.80;99.90
10437;DHT22;5265;50.006;9.202;2023-05-16T02:07:35;11.80;99.90
10437;DHT22;5265;50.006;9.202;2023-05-16T02:10:02;11.80;99.90
10437;DHT22;5265;50.006;9.202;2023-05-16T02:12:30;11.70;99.90
10437;DHT22;5265;50.006;9.202;2023-05-16T02:14:58;11.70;99.90
10437;DHT22;5265;50.006;9.202;2023-05-16T02:17:26;11.70;99.90
10437;DHT22;5265;50.006;9.202;2023-05-16T02:19:53;11.80;99.90
10437;DHT22;5265;50.006;9.202;2023-05-16T02:22:21;11.70;99.90
10437;DHT22;5265;50.006;9.202;2023-05-16T02:24:48;11.70;99.90
10437;DHT22;5265;50.006;9.202;2023-05-16T02:27:15;11.60;99.90
10437;DHT22;5265;50.006;9.202;2023-05-16T02:29:42;11.70;99.90
10437;DHT22;5265;50.006;9.202;2023-05-16T02:32:10;11.70;99.90
10437;DHT22;5265;50.006;9.202;2023-05-16T02:34:38;11.70;99.90
10437;DHT22;5265;50.006;9.202;2023-05-16T02:37:06;11.80;99.90
10437;DHT22;5265;50.006;9.202;2023-05-16T02:39:33;11.80;99.90
10437;DHT22;5265;50.006;9.202;2023-05-16T02:42:00;11.90;99.90
10437;DHT22;5265;50.006;9.202;2023-05-16T02:44:27;11.80;99.90
10437;DHT22;5265;50.006;9.202;2023-05-16T02:46:57;11.80;99.90
10437;DHT22;5265;50.006;9.202;2023-05-16T02:49:25;11.80;99.90
10437;DHT22;5265;50.006;9.202;2023-05-16T02:51:53;11.60;99.90
10437;DHT22;5265;50.006;9.202;2023-05-16T02:54:20;11.60;99.90
10437;DHT22;5265;50.006;9.202;2023-05-16T02:56:47;11.60;99.90
10437;DHT22;5265;50.006;9.202;2023-05-16T02:59:14;11.60;99.90
10437;DHT22;5265;50.006;9.202;2023-05-16T03:01:41;11.50;99.90
10437;DHT22;5265;50.006;9.202;2023-05-16T03:04:08;11.50;99.90
10437;DHT22;5265;50.006;9.202;2023-05-16T03:06:36;11.60;99.90
10437;DHT22;5265;50.006;9.202;2023-05-16T03:09:03;11.60;99.90
10437;DHT22;5265;50.006;9.202;2023-05-16T03:11:32;11.60;99.90
10437;DHT22;5265;50.006;9.202;2023-05-16T03:13:59;11.50;99.90
10437;DHT22;5265;50.006;9.202;2023-05-16T03:16:26;11.50;99.90
10437;DHT22;5265;50.006;9.202;2023-05-16T03:18:53;11.50;99.90
10437;DHT22;5265;50.006;9.202;2023-05-16T03:21:20;11.40;99.90
10437;DHT22;5265;50.006;9.202;2023-05-16T03:23:48;11.40;99.90
10437;DHT22;5265;50.006;9.202;2023-05-16T03:26:16;11.30;99.90
10437;DHT22;5265;50.006;9.202;2023-05-16T03:28:42;11.30;99.90
10437;DHT22;5265;50.006;9.202;2023-05-16T03:31:09;11.20;99.90
10437;DHT22;5265;50.006;9.202;2023-05-16T03:33:37;11.10;99.90
10437;DHT22;5265;50.006;9.202;2023-05-16T03:36:03;11.10;99.90
10437;DHT22;5265;50.006;9.202;2023-05-16T03:38:31;11.10;99.90
10437;DHT22;5265;50.006;9.202;2023-05-16T03:40:59;11.10;99.90
10437;DHT22;5265;50.006;9.202;2023-05-16T03:43:26;11.00;99.90
10437;DHT22;5265;50.006;9.202;2023-05-16T03:45:53;11.00;99.90
10437;DHT22;5265;50.006;9.202;2023-05-16T03:48:20;11.00;99.90
10437;DHT22;5265;50.006;9.202;2023-05-16T03:50:47;11.00;99.90
10437;DHT22;5265;50.006;9.202;2023-05-16T03:53:14;11.10;99.90
10437;DHT22;5265;50.006;9.202;2023-05-16T03:55:41;10.90;99.90
10437;DHT22;5265;50.006;9.202;2023-05-16T03:58:09;10.90;99.90
10437;DHT22;5265;50.006;9.202;2023-05-16T04:00:37;11.00;99.90
10437;DHT22;5265;50.006;9.202;2023-05-16T04:03:05;10.90;99.90
10437;DHT22;5265;50.006;9.202;2023-05-16T04:05:33;11.00;99.90
10437;DHT22;5265;50.006;9.202;2023-05-16T04:08:00;11.00;99.90
10437;DHT22;5265;50.006;9.202;2023-05-16T04:10:27;10.90;99.90
10437;DHT22;5265;50.006;9.202;2023-05-16T04:12:54;11.00;99.90
10437;DHT22;5265;50.006;9.202;2023-05-16T04:15:22;11.00;99.90
10437;DHT22;5265;50.006;9.202;2023-05-16T04:17:50;11.10;99.90
10437;DHT22;5265;50.006;9.202;2023-05-16T04:20:17;11.00;99.90
10437;DHT22;5265;50.006;9.202;2023-05-16T04:22:45;11.10;99.90
10437;DHT22;5265;50.006;9.202;2023-05-16T04:25:12;11.10;99.90
10437;DHT22;5265;50.006;9.202;2023-05-16T04:27:39;11.10;99.90
10437;DHT22;5265;50.006;9.202;2023-05-16T04:30:07;11.20;99.90
10437;DHT22;5265;50.006;9.202;2023-05-16T04:32:37;11.10;99.90
10437;DHT22;5265;50.006;9.202;2023-05-16T04:35:04;11.00;99.90
10437;DHT22;5265;50.006;9.202;2023-05-16T04:37:33;11.10;99.90
10437;DHT22;5265;50.006;9.202;2023-05-16T04:40:01;11.20;99.90
10437;DHT22;5265;50.006;9.202;2023-05-16T04:42:28;11.30;99.90
10437;DHT22;5265;50.006;9.202;2023-05-16T04:44:56;11.30;99.90
10437;DHT22;5265;50.006;9.202;2023-05-16T04:47:23;11.30;99.90
10437;DHT22;5265;50.006;9.202;2023-05-16T04:49:51;11.40;99.90
10437;DHT22;5265;50.006;9.202;2023-05-16T04:52:18;11.40;99.90
10437;DHT22;5265;50.006;9.202;2023-05-16T04:54:45;11.50;99.90
10437;DHT22;5265;50.006;9.202;2023-05-16T04:57:12;11.50;99.90
10437;DHT22;5265;50.006;9.202;2023-05-16T04:59:39;11.60;99.90
10437;DHT22;5265;50.006;9.202;2023-05-16T05:02:07;11.60;99.90
10437;DHT22;5265;50.006;9.202;2023-05-16T05:04:34;11.70;99.90
10437;DHT22;5265;50.006;9.202;2023-05-16T05:07:04;11.70;99.90
10437;DHT22;5265;50.006;9.202;2023-05-16T05:09:32;11.70;99.90
10437;DHT22;5265;50.006;9.202;2023-05-16T05:11:58;11.70;99.90
10437;DHT22;5265;50.006;9.202;2023-05-16T05:14:26;11.70;99.90
10437;DHT22;5265;50.006;9.202;2023-05-16T05:16:52;11.80;99.90
10437;DHT22;5265;50.006;9.202;2023-05-16T05:19:20;11.80;99.90
10437;DHT22;5265;50.006;9.202;2023-05-16T05:21:47;11.80;99.90
10437;DHT22;5265;50.006;9.202;2023-05-16T05:24:15;11.80;99.90
10437;DHT22;5265;50.006;9.202;2023-05-16T05:26:42;11.80;99.90
10437;DHT22;5265;50.006;9.202;2023-05-16T05:29:10;11.80;99.90
10437;DHT22;5265;50.006;9.202;2023-05-16T05:31:37;11.80;99.90
10437;DHT22;5265;50.006;9.202;2023-05-16T05:34:04;11.80;99.90
10437;DHT22;5265;50.006;9.202;2023-05-16T05:36:31;11.80;99.90
10437;DHT22;5265;50.006;9.202;2023-05-16T05:38:58;11.80;99.90
10437;DHT22;5265;50.006;9.202;2023-05-16T05:41:27;11.80;99.90
10437;DHT22;5265;50.006;9.202;2023-05-16T05:43:54;11.90;99.90
10437;DHT22;5265;50.006;9.202;2023-05-16T05:46:22;11.90;99.90
10437;DHT22;5265;50.006;9.202;2023-05-16T05:48:50;12.00;99.90
10437;DHT22;5265;50.006;9.202;2023-05-16T05:51:17;12.00;99.90
10437;DHT22;5265;50.006;9.202;2023-05-16T05:53:44;12.00;99.90
10437;DHT22;5265;50.006;9.202;2023-05-16T05:56:11;11.90;99.90
10437;DHT22;5265;50.006;9.202;2023-05-16T05:58:40;12.00;99.90
10437;DHT22;5265;50.006;9.202;2023-05-16T06:01:07;12.00;99.90
10437;DHT22;5265;50.006;9.202;2023-05-16T06:03:34;12.10;99.90
10437;DHT22;5265;50.006;9.202;2023-05-16T06:06:02;12.10;99.90
10437;DHT22;5265;50.006;9.202;2023-05-16T06:08:29;12.10;99.90
10437;DHT22;5265;50.006;9.202;2023-05-16T06:10:56;12.10;99.90
10437;DHT22;5265;50.006;9.202;2023-05-16T06:13:24;12.10;99.90
10437;DHT22;5265;50.006;9.202;2023-05-16T06:15:52;12.20;99.90
10437;DHT22;5265;50.006;9.202;2023-05-16T06:18:19;12.20;99.90
10437;DHT22;5265;50.006;9.202;2023-05-16T06:20:47;12.20;99.90
10437;DHT22;5265;50.006;9.202;2023-05-16T06:23:14;12.20;99.90
10437;DHT22;5265;50.006;9.202;2023-05-16T06:25:41;12.20;99.90
10437;DHT22;5265;50.006;9.202;2023-05-16T06:28:08;12.10;99.90
10437;DHT22;5265;50.006;9.202;2023-05-16T06:30:35;12.20;99.90
10437;DHT22;5265;50.006;9.202;2023-05-16T06:33:03;12.20;99.90
10437;DHT22;5265;50.006;9.202;2023-05-16T06:35:30;12.20;99.90
10437;DHT22;5265;50.006;9.202;2023-05-16T06:37:57;12.30;99.90
10437;DHT22;5265;50.006;9.202;2023-05-16T06:40:24;12.20;99.90
10437;DHT22;5265;50.006;9.202;2023-05-16T06:42:52;12.20;99.90
10437;DHT22;5265;50.006;9.202;2023-05-16T06:45:19;12.20;99.90
10437;DHT22;5265;50.006;9.202;2023-05-16T06:47:45;12.20;99.90
10437;DHT22;5265;50.006;9.202;2023-05-16T06:50:14;12.20;99.90
10437;DHT22;5265;50.006;9.202;2023-05-16T06:52:41;12.20;99.90
10437;DHT22;5265;50.006;9.202;2023-05-16T06:55:09;12.10;99.90
10437;DHT22;5265;50.006;9.202;2023-05-16T06:57:37;12.10;99.90
10437;DHT22;5265;50.006;9.202;2023-05-16T07:00:04;12.10;99.90
10437;DHT22;5265;50.006;9.202;2023-05-16T07:02:31;12.10;99.90
10437;DHT22;5265;50.006;9.202;2023-05-16T07:04:58;12.00;99.90
10437;DHT22;5265;50.006;9.202;2023-05-16T07:07:27;11.80;99.90
10437;DHT22;5265;50.006;9.202;2023-05-16T07:09:54;11.70;99.90
10437;DHT22;5265;50.006;9.202;2023-05-16T07:12:22;11.60;99.90
10437;DHT22;5265;50.006;9.202;2023-05-16T07:14:49;11.50;99.90
10437;DHT22;5265;50.006;9.202;2023-05-16T07:17:16;11.40;99.90
10437;DHT22;5265;50.006;9.202;2023-05-16T07:19:43;11.40;99.90
10437;DHT22;5265;50.006;9.202;2023-05-16T07:22:10;11.40;99.90
10437;DHT22;5265;50.006;9.202;2023-05-16T07:24:38;11.40;99.90
10437;DHT22;5265;50.006;9.202;2023-05-16T07:27:05;11.30;99.90
10437;DHT22;5265;50.006;9.202;2023-05-16T07:29:33;11.30;99.90
10437;DHT22;5265;50.006;9.202;2023-05-16T07:32:00;11.40;99.90
10437;DHT22;5265;50.006;9.202;2023-05-16T07:34:27;11.40;99.90
10437;DHT22;5265;50.006;9.202;2023-05-16T07:36:54;11.40;99.90
10437;DHT22;5265;50.006;9.202;2023-05-16T07:39:21;11.30;99.90
10437;DHT22;5265;50.006;9.202;2023-05-16T07:41:50;11.40;99.90
10437;DHT22;5265;50.006;9.202;2023-05-16T07:44:17;11.50;99.90
10437;DHT22;5265;50.006;9.202;2023-05-16T07:46:44;11.60;99.90
10437;DHT22;5265;50.006;9.202;2023-05-16T07:49:11;11.60;99.90
10437;DHT22;5265;50.006;9.202;2023-05-16T07:51:38;11.70;99.90
10437;DHT22;5265;50.006;9.202;2023-05-16T07:54:05;11.90;99.90
10437;DHT22;5265;50.006;9.202;2023-05-16T07:56:33;11.80;99.90
10437;DHT22;5265;50.006;9.202;2023-05-16T07:59:01;11.80;99.90
10437;DHT22;5265;50.006;9.202;2023-05-16T08:01:30;11.90;99.90
10437;DHT22;5265;50.006;9.202;2023-05-16T08:03:57;11.80;99.90
10437;DHT22;5265;50.006;9.202;2023-05-16T08:06:24;11.70;99.90
10437;DHT22;5265;50.006;9.202;2023-05-16T08:08:52;11.70;99.90
10437;DHT22;5265;50.006;9.202;2023-05-16T08:11:19;11.80;99.90
10437;DHT22;5265;50.006;9.202;2023-05-16T08:13:48;11.90;99.90
10437;DHT22;5265;50.006;9.202;2023-05-16T08:16:16;11.90;99.90
10437;DHT22;5265;50.006;9.202;2023-05-16T08:18:43;12.00;99.90
10437;DHT22;5265;50.006;9.202;2023-05-16T08:21:10;12.10;99.90
10437;DHT22;5265;50.006;9.202;2023-05-16T08:23:39;12.00;99.90
10437;DHT22;5265;50.006;9.202;2023-05-16T08:26:06;12.20;99.90
10437;DHT22;5265;50.006;9.202;2023-05-16T08:28:33;12.10;99.90
10437;DHT22;5265;50.006;9.202;2023-05-16T08:31:00;12.10;99.90
10437;DHT22;5265;50.006;9.202;2023-05-16T08:33:29;12.20;99.90
10437;DHT22;5265;50.006;9.202;2023-05-16T08:35:55;12.40;99.90
10437;DHT22;5265;50.006;9.202;2023-05-16T08:38:23;12.40;99.90
10437;DHT22;5265;50.006;9.202;2023-05-16T08:40:50;12.70;99.90
10437;DHT22;5265;50.006;9.202;2023-05-16T08:43:17;12.90;99.90
10437;DHT22;5265;50.006;9.202;2023-05-16T08:45:44;13.20;99.90
10437;DHT22;5265;50.006;9.202;2023-05-16T08:48:11;13.20;99.90
10437;DHT22;5265;50.006;9.202;2023-05-16T08:50:42;12.80;99.90
10437;DHT22;5265;50.006;9.202;2023-05-16T08:53:09;12.90;99.90
10437;DHT22;5265;50.006;9.202;2023-05-16T08:55:37;13.00;99.90
10437;DHT22;5265;50.006;9.202;2023-05-16T08:58:05;13.10;99.90
10437;DHT22;5265;50.006;9.202;2023-05-16T09:00:32;12.80;99.90
10437;DHT22;5265;50.006;9.202;2023-05-16T09:03:01;12.60;99.90
10437;DHT22;5265;50.006;9.202;2023-05-16T09:05:28;12.20;99.90
10437;DHT22;5265;50.006;9.202;2023-05-16T09:07:57;12.00;99.90
10437;DHT22;5265;50.006;9.202;2023-05-16T09:10:25;11.60;99.90
10437;DHT22;5265;50.006;9.202;2023-05-16T09:12:52;11.40;99.90
10437;DHT22;5265;50.006;9.202;2023-05-16T09:15:19;11.10;99.90
10437;DHT22;5265;50.006;9.202;2023-05-16T09:27:39;11.00;99.90
10437;DHT22;5265;50.006;9.202;2023-05-16T09:30:07;11.00;99.90
10437;DHT22;5265;50.006;9.202;2023-05-16T09:32:34;11.00;99.90
10437;DHT22;5265;50.006;9.202;2023-05-16T09:35:01;10.90;99.90
10437;DHT22;5265;50.006;9.202;2023-05-16T09:37:29;11.00;99.90
10437;DHT22;5265;50.006;9.202;2023-05-16T09:39:56;11.10;99.90
10437;DHT22;5265;50.006;9.202;2023-05-16T09:42:24;11.20;99.90
10437;DHT22;5265;50.006;9.202;2023-05-16T09:44:53;11.20;99.90
10437;DHT22;5265;50.006;9.202;2023-05-16T09:47:21;11.20;99.90
10437;DHT22;5265;50.006;9.202;2023-05-16T09:49:50;11.10;99.90
10437;DHT22;5265;50.006;9.202;2023-05-16T09:52:18;11.20;99.90
10437;DHT22;5265;50.006;9.202;2023-05-16T09:54:45;11.20;99.90
10437;DHT22;5265;50.006;9.202;2023-05-16T09:57:16;11.50;99.90
10437;DHT22;5265;50.006;9.202;2023-05-16T09:59:43;11.10;99.90
10437;DHT22;5265;50.006;9.202;2023-05-16T10:04:39;11.60;99.90
10437;DHT22;5265;50.006;9.202;2023-05-16T10:07:06;11.80;99.90
10437;DHT22;5265;50.006;9.202;2023-05-16T10:09:35;11.90;99.90
10437;DHT22;5265;50.006;9.202;2023-05-16T10:12:06;12.10;99.90
10437;DHT22;5265;50.006;9.202;2023-05-16T10:14:35;12.10;99.90
10437;DHT22;5265;50.006;9.202;2023-05-16T10:17:02;12.20;99.90
10437;DHT22;5265;50.006;9.202;2023-05-16T10:19:30;12.60;99.90
10437;DHT22;5265;50.006;9.202;2023-05-16T10:21:59;12.40;99.90
10437;DHT22;5265;50.006;9.202;2023-05-16T10:24:30;12.40;99.90
10437;DHT22;5265;50.006;9.202;2023-05-16T10:26:57;12.70;99.90
10437;DHT22;5265;50.006;9.202;2023-05-16T10:29:26;12.80;99.90
10437;DHT22;5265;50.006;9.202;2023-05-16T23:02:36;7.40;99.90
10437;DHT22;5265;50.006;9.202;2023-05-16T23:05:03;7.40;99.90
10437;DHT22;5265;50.006;9.202;2023-05-16T23:07:30;7.30;99.90
10437;DHT22;5265;50.006;9.202;2023-05-16T23:09:57;7.20;99.90
10437;DHT22;5265;50.006;9.202;2023-05-16T23:12:25;7.20;99.90
10437;DHT22;5265;50.006;9.202;2023-05-16T23:14:52;7.10;99.90
10437;DHT22;5265;50.006;9.202;2023-05-16T23:17:19;6.90;99.90
10437;DHT22;5265;50.006;9.202;2023-05-16T23:19:47;6.80;99.90
10437;DHT22;5265;50.006;9.202;2023-05-16T23:22:14;6.70;99.90
10437;DHT22;5265;50.006;9.202;2023-05-16T23:24:41;6.80;99.90
10437;DHT22;5265;50.006;9.202;2023-05-16T23:27:08;6.70;99.90
10437;DHT22;5265;50.006;9.202;2023-05-16T23:29:36;6.60;99.90
10437;DHT22;5265;50.006;9.202;2023-05-16T23:32:03;6.60;99.90
10437;DHT22;5265;50.006;9.202;2023-05-16T23:34:30;6.50;99.90
10437;DHT22;5265;50.006;9.202;2023-05-16T23:36:59;6.60;99.90
10437;DHT22;5265;50.006;9.202;2023-05-16T23:39:26;6.50;99.90
10437;DHT22;5265;50.006;9.202;2023-05-16T23:41:53;6.50;99.90
10437;DHT22;5265;50.006;9.202;2023-05-16T23:44:20;6.50;99.90
10437;DHT22;5265;50.006;9.202;2023-05-16T23:46:47;6.40;99.90
10437;DHT22;5265;50.006;9.202;2023-05-16T23:49:14;6.50;99.90
10437;DHT22;5265;50.006;9.202;2023-05-16T23:51:42;6.50;99.90
10437;DHT22;5265;50.006;9.202;2023-05-16T23:54:10;6.40;99.90
10437;DHT22;5265;50.006;9.202;2023-05-16T23:56:37;6.30;99.90
10437;DHT22;5265;50.006;9.202;2023-05-16T23:59:04;6.30;99.90
